Time;durP1;ratioP1;P1;durP2;ratioP2;P2;SDS_P1;SDS_P2;PMS_P1;PMS_P2;Temp;Humidity;BMP_temperature;BMP_pressure;BME280_temperature;BME280_humidity;BME280_pressure;Samples;Min_cycle;Max_cycle;Signal;HPM_P1;HPM_P2
2022/01/15 00:00:19;;;;;;;13.48;6.97;;;6.70;99.90;;;;;;5004966;28;20061;-71
2022/01/15 00:02:45;;;;;;;15.82;7.30;;;6.70;99.90;;;;;;5021070;28;20042;-71
2022/01/15 00:05:11;;;;;;;16.13;7.53;;;6.70;99.90;;;;;;5020614;28;20045;-71
2022/01/15 00:07:38;;;;;;;16.05;7.45;;;6.70;99.90;;;;;;5021675;28;20053;-70
2022/01/15 00:10:04;;;;;;;11.68;6.25;;;6.70;99.90;;;;;;5038478;28;20132;-70
2022/01/15 00:12:38;;;;;;;14.23;6.45;;;6.70;99.90;;;;;;5004181;28;20064;-70
2022/01/15 00:15:04;;;;;;;;;;;6.70;99.90;;;;;;5021113;28;20046;-72
2022/01/15 00:20:23;;;;;;;17.52;9.55;;;6.70;99.90;;;;;;5053461;28;20559;-71
2022/01/15 00:22:50;;;;;;;17.63;9.10;;;6.70;99.90;;;;;;5058071;28;20094;-70
2022/01/15 00:25:17;;;;;;;16.17;9.60;;;6.70;99.90;;;;;;5058014;28;20095;-70
2022/01/15 00:27:43;;;;;;;17.35;9.27;;;6.70;99.90;;;;;;5058079;28;20080;-71
2022/01/15 00:30:10;;;;;;;16.67;8.73;;;6.70;99.90;;;;;;5058129;28;20056;-71
2022/01/15 00:32:36;;;;;;;19.83;9.13;;;6.70;99.90;;;;;;5040135;28;20049;-71
2022/01/15 00:35:02;;;;;;;18.63;9.27;;;6.70;99.90;;;;;;5040552;28;20041;-71
2022/01/15 00:37:31;;;;;;;20.70;10.07;;;6.70;99.90;;;;;;5057653;28;20095;-72
2022/01/15 00:39:58;;;;;;;13.20;8.27;;;6.70;99.90;;;;;;5058089;28;20423;-71
2022/01/15 00:42:24;;;;;;;14.65;8.55;;;6.80;99.90;;;;;;5040290;28;20060;-72
2022/01/15 00:44:50;;;;;;;15.10;8.75;;;6.80;99.90;;;;;;5040031;28;20187;-70
2022/01/15 00:47:16;;;;;;;17.65;10.00;;;6.80;99.90;;;;;;5040463;28;20423;-70
2022/01/15 00:49:42;;;;;;;17.50;10.48;;;6.80;99.90;;;;;;5038173;28;20049;-72
2022/01/15 00:52:07;;;;;;;18.92;9.82;;;6.80;99.90;;;;;;5040268;28;20087;-72
2022/01/15 00:54:33;;;;;;;21.55;10.25;;;6.80;99.90;;;;;;5057145;28;20063;-73
2022/01/15 00:56:58;;;;;;;17.10;9.50;;;6.80;99.90;;;;;;5038945;28;20053;-72
2022/01/15 00:59:24;;;;;;;15.85;8.50;;;6.80;99.90;;;;;;5039774;28;20127;-72
2022/01/15 01:01:49;;;;;;;22.15;10.55;;;6.70;99.90;;;;;;5039767;28;20080;-72
2022/01/15 01:04:15;;;;;;;17.60;10.40;;;6.70;99.90;;;;;;5057609;28;20064;-71
2022/01/15 01:06:40;;;;;;;15.45;9.20;;;6.70;99.90;;;;;;5057186;28;20370;-71
2022/01/15 01:09:06;;;;;;;17.90;9.20;;;6.80;99.90;;;;;;5057149;28;20080;-71
2022/01/15 01:11:44;;;;;;;18.73;10.25;;;6.70;99.90;;;;;;5039268;28;20103;-71
2022/01/15 01:24:48;;;;;;;15.88;9.05;;;6.70;99.90;;;;;;5036852;28;20054;-71
2022/01/15 01:27:27;;;;;;;20.27;9.80;;;6.80;99.90;;;;;;5019638;28;20059;-71
2022/01/15 01:30:07;;;;;;;19.23;10.88;;;6.70;99.90;;;;;;5036729;28;20059;-71
2022/01/15 01:35:13;;;;;;;19.30;9.55;;;6.70;99.90;;;;;;5019099;28;20045;-71
2022/01/15 01:37:44;;;;;;;17.83;10.20;;;6.80;99.90;;;;;;5036841;28;20057;-71
2022/01/15 01:40:19;;;;;;;18.90;10.25;;;6.70;99.90;;;;;;5036608;28;20128;-71
2022/01/15 01:42:57;;;;;;;16.90;9.68;;;6.70;99.90;;;;;;5036913;28;20111;-71
2022/01/15 01:45:23;;;;;;;20.92;10.75;;;6.70;99.90;;;;;;5036634;28;20099;-71
2022/01/15 01:47:48;;;;;;;18.98;10.10;;;6.70;99.90;;;;;;5037081;28;20350;-70
2022/01/15 01:50:17;;;;;;;16.38;9.98;;;6.70;99.90;;;;;;5018994;28;20075;-72
2022/01/15 01:52:46;;;;;;;16.50;9.40;;;6.70;99.90;;;;;;5036294;28;20045;-71
2022/01/15 01:55:12;;;;;;;15.73;9.35;;;6.70;99.90;;;;;;5036426;28;20129;-71
2022/01/15 01:57:38;;;;;;;22.50;10.68;;;6.70;99.90;;;;;;5019001;28;20458;-72
2022/01/15 02:00:07;;;;;;;19.83;9.60;;;6.70;99.90;;;;;;5036005;28;20346;-71
2022/01/15 02:02:32;;;;;;;15.02;9.15;;;6.70;99.90;;;;;;5018915;28;20053;-70
2022/01/15 02:04:58;;;;;;;16.05;9.43;;;6.70;99.90;;;;;;5018455;28;20068;-71
2022/01/15 02:07:26;;;;;;;16.88;8.73;;;6.70;99.90;;;;;;5035958;28;20045;-70
2022/01/15 02:09:53;;;;;;;16.02;8.43;;;6.70;99.90;;;;;;5019238;28;20049;-71
2022/01/15 02:12:18;;;;;;;15.15;8.73;;;6.70;99.90;;;;;;5036412;28;20057;-71
2022/01/15 02:14:44;;;;;;;15.25;8.25;;;6.60;99.90;;;;;;5035801;28;20052;-70
2022/01/15 02:17:12;;;;;;;17.38;8.55;;;6.70;99.90;;;;;;5036273;28;20056;-71
2022/01/15 02:19:46;;;;;;;17.08;9.10;;;6.70;99.90;;;;;;5035355;28;20560;-70
2022/01/15 02:24:56;;;;;;;15.55;7.95;;;6.70;99.90;;;;;;5018294;28;20141;-71
2022/01/15 02:27:21;;;;;;;18.08;8.10;;;6.60;99.90;;;;;;5035436;28;20087;-72
2022/01/15 02:29:47;;;;;;;15.27;7.82;;;6.70;99.90;;;;;;5035991;28;20045;-71
2022/01/15 02:32:12;;;;;;;13.15;7.72;;;6.60;99.90;;;;;;5035924;28;20446;-72
2022/01/15 02:34:38;;;;;;;11.50;7.00;;;6.60;99.90;;;;;;5035956;28;20053;-70
2022/01/15 02:37:04;;;;;;;12.02;7.15;;;6.60;99.90;;;;;;5018532;28;20053;-70
2022/01/15 02:39:33;;;;;;;14.07;7.50;;;6.60;99.90;;;;;;5018230;28;20060;-72
2022/01/15 02:41:59;;;;;;;13.05;7.22;;;6.60;99.90;;;;;;5035295;28;20064;-70
2022/01/15 02:44:25;;;;;;;11.10;6.85;;;6.60;99.90;;;;;;5018501;28;20053;-72
2022/01/15 02:49:17;;;;;;;10.88;6.13;;;6.60;99.90;;;;;;5046742;28;20136;-71
2022/01/15 02:51:43;;;;;;;9.75;5.95;;;6.60;99.90;;;;;;5037424;28;20044;-72
2022/01/15 02:54:08;;;;;;;10.80;6.07;;;6.60;99.90;;;;;;5037267;28;20531;-71
2022/01/15 02:56:39;;;;;;;9.38;5.50;;;6.60;99.90;;;;;;5033678;28;20045;-70
2022/01/15 02:59:07;;;;;;;13.27;5.80;;;6.60;99.90;;;;;;5018161;28;20052;-70
2022/01/15 03:01:33;;;;;;;12.00;6.50;;;6.60;99.90;;;;;;5018288;28;20049;-71
2022/01/15 03:03:59;;;;;;;10.88;5.60;;;6.60;99.90;;;;;;5017673;28;20073;-72
2022/01/15 03:06:25;;;;;;;10.57;5.10;;;6.60;99.90;;;;;;5035123;28;20060;-70
2022/01/15 03:08:51;;;;;;;13.60;5.85;;;6.60;99.90;;;;;;5017397;28;20053;-72
2022/01/15 03:11:18;;;;;;;12.07;5.35;;;6.50;99.90;;;;;;5017493;28;20140;-70
2022/01/15 03:13:45;;;;;;;8.32;5.15;;;6.50;99.90;;;;;;5035442;28;20057;-72
2022/01/15 03:16:19;;;;;;;10.02;5.20;;;6.50;99.90;;;;;;5034775;28;20060;-71
2022/01/15 03:18:45;;;;;;;10.60;4.75;;;6.50;99.90;;;;;;5043964;28;20119;-72
2022/01/15 03:21:11;;;;;;;9.70;5.25;;;6.50;99.90;;;;;;5055197;28;20037;-72
2022/01/15 03:23:37;;;;;;;9.57;5.30;;;6.50;99.90;;;;;;5036987;28;20335;-70
2022/01/15 03:26:04;;;;;;;8.60;4.85;;;6.50;99.90;;;;;;5054474;28;20073;-70
2022/01/15 03:28:29;;;;;;;8.48;4.43;;;6.40;99.90;;;;;;5054782;28;20056;-72
2022/01/15 03:30:55;;;;;;;11.15;5.15;;;6.40;99.90;;;;;;5055002;28;20040;-70
2022/01/15 03:33:20;;;;;;;9.90;4.85;;;6.40;99.90;;;;;;5055193;28;20049;-70
2022/01/15 03:35:46;;;;;;;11.43;4.82;;;6.40;99.90;;;;;;5054840;28;20053;-72
2022/01/15 03:38:12;;;;;;;10.95;5.20;;;6.40;99.90;;;;;;5037080;28;20453;-71
2022/01/15 03:40:37;;;;;;;8.30;4.82;;;6.40;99.90;;;;;;5054697;28;20126;-72
2022/01/15 03:43:05;;;;;;;15.35;5.47;;;6.40;99.90;;;;;;5054663;28;20120;-72
2022/01/15 03:45:32;;;;;;;9.93;4.82;;;6.40;99.90;;;;;;5037160;28;20041;-68
2022/01/15 03:47:57;;;;;;;10.35;5.10;;;6.40;99.90;;;;;;5051271;28;20128;-67
2022/01/15 03:50:24;;;;;;;8.23;4.70;;;6.40;99.90;;;;;;5034284;28;20081;-68
2022/01/15 03:52:51;;;;;;;10.00;4.95;;;6.40;99.90;;;;;;5034627;28;20372;-67
2022/01/15 03:55:17;;;;;;;8.70;4.32;;;6.40;99.90;;;;;;5034875;28;20060;-68
2022/01/15 03:57:42;;;;;;;9.27;5.18;;;6.40;99.90;;;;;;5017953;28;20425;-68
2022/01/15 04:00:15;;;;;;;10.05;4.80;;;6.30;99.90;;;;;;5017852;28;20049;-71
2022/01/15 04:02:41;;;;;;;8.73;4.60;;;6.30;99.90;;;;;;5034572;28;20046;-68
2022/01/15 04:05:08;;;;;;;8.43;4.75;;;6.30;99.90;;;;;;5016908;28;20057;-68
2022/01/15 04:07:34;;;;;;;9.25;4.28;;;6.30;99.90;;;;;;5034583;28;20045;-68
2022/01/15 04:10:00;;;;;;;10.27;4.70;;;6.30;99.90;;;;;;5017617;28;20095;-68
2022/01/15 04:12:25;;;;;;;8.32;5.20;;;6.40;99.90;;;;;;5034376;28;20049;-68
2022/01/15 04:14:51;;;;;;;9.60;4.90;;;6.30;99.90;;;;;;5017161;28;20044;-70
2022/01/15 04:17:16;;;;;;;8.38;4.60;;;6.30;99.90;;;;;;5034459;28;20077;-68
2022/01/15 04:19:42;;;;;;;10.57;4.72;;;6.30;99.90;;;;;;5017181;28;20046;-70
2022/01/15 04:22:08;;;;;;;9.18;4.65;;;6.30;99.90;;;;;;5017441;28;20050;-68
2022/01/15 04:24:33;;;;;;;8.77;4.60;;;6.30;99.90;;;;;;5017270;28;20049;-68
2022/01/15 04:26:59;;;;;;;8.95;4.72;;;6.30;99.90;;;;;;5016866;28;20054;-68
2022/01/15 04:29:24;;;;;;;8.00;4.57;;;6.30;99.90;;;;;;5017375;28;20124;-69
2022/01/15 04:31:51;;;;;;;11.18;5.25;;;6.30;99.90;;;;;;5020633;28;20049;-69
2022/01/15 04:34:25;;;;;;;7.65;4.68;;;6.30;99.90;;;;;;5020621;28;20073;-68
2022/01/15 04:36:52;;;;;;;11.60;4.57;;;6.30;99.90;;;;;;5037847;28;20052;-69
2022/01/15 04:39:18;;;;;;;12.85;5.32;;;6.30;99.90;;;;;;5037879;28;20068;-68
2022/01/15 04:41:44;;;;;;;10.88;5.18;;;6.30;99.90;;;;;;5037787;28;20049;-71
2022/01/15 04:44:10;;;;;;;11.85;5.57;;;6.30;99.90;;;;;;5020431;28;20115;-71
2022/01/15 04:46:37;;;;;;;10.70;4.97;;;6.30;99.90;;;;;;5020538;28;20421;-71
2022/01/15 04:49:04;;;;;;;9.57;4.93;;;6.30;99.90;;;;;;5020337;28;20045;-72
2022/01/15 04:51:29;;;;;;;14.77;5.18;;;6.30;99.90;;;;;;5020332;28;20343;-72
2022/01/15 04:53:55;;;;;;;10.93;5.28;;;6.30;99.90;;;;;;5037656;28;20095;-72
2022/01/15 04:56:20;;;;;;;10.68;5.32;;;6.30;99.90;;;;;;5019994;28;20381;-70
2022/01/15 04:58:46;;;;;;;8.73;4.68;;;6.30;99.90;;;;;;5020240;28;20057;-70
2022/01/15 05:01:11;;;;;;;11.88;5.15;;;6.30;99.90;;;;;;5037791;28;20413;-71
2022/01/15 05:03:37;;;;;;;11.68;5.13;;;6.40;99.90;;;;;;5019512;28;20088;-71
2022/01/15 05:06:03;;;;;;;9.60;4.85;;;6.30;99.90;;;;;;5049042;28;20049;-70
2022/01/15 05:08:28;;;;;;;12.10;5.28;;;6.20;99.90;;;;;;5059713;28;20051;-71
2022/01/15 05:10:58;;;;;;;10.32;4.80;;;6.20;99.90;;;;;;5077030;28;20041;-70
2022/01/15 05:13:27;;;;;;;11.80;5.50;;;6.20;99.90;;;;;;5077148;28;20049;-70
2022/01/15 05:15:53;;;;;;;10.82;5.45;;;6.20;99.90;;;;;;5059398;28;20044;-71
2022/01/15 05:18:19;;;;;;;11.68;5.60;;;6.20;99.90;;;;;;5077208;28;20357;-71
2022/01/15 05:20:45;;;;;;;9.65;4.75;;;6.20;99.90;;;;;;5076893;28;20045;-71
2022/01/15 05:23:12;;;;;;;11.13;4.80;;;6.20;99.90;;;;;;5059906;28;20052;-72
2022/01/15 05:25:38;;;;;;;10.43;4.82;;;6.20;99.90;;;;;;5077088;28;20036;-70
2022/01/15 05:28:04;;;;;;;10.98;4.50;;;6.20;99.90;;;;;;5076873;28;20044;-71
2022/01/15 05:30:31;;;;;;;10.73;4.88;;;6.20;99.90;;;;;;5077027;28;20044;-71
2022/01/15 05:32:58;;;;;;;8.25;4.93;;;6.20;99.90;;;;;;5076751;28;20084;-70
2022/01/15 05:35:26;;;;;;;11.15;4.43;;;6.20;99.90;;;;;;5054989;28;20049;-71
2022/01/15 05:37:59;;;;;;;10.30;4.38;;;6.20;99.90;;;;;;5056880;28;20068;-71
2022/01/15 05:40:25;;;;;;;7.78;3.97;;;6.20;99.90;;;;;;5056598;28;20510;-70
2022/01/15 05:42:52;;;;;;;7.78;4.35;;;6.20;99.90;;;;;;5055892;28;20365;-70
2022/01/15 05:45:18;;;;;;;7.25;4.00;;;6.20;99.90;;;;;;5056454;28;20037;-70
2022/01/15 05:47:44;;;;;;;7.40;3.72;;;6.10;99.90;;;;;;5056386;28;20045;-71
2022/01/15 05:50:10;;;;;;;7.93;4.03;;;6.20;99.90;;;;;;5056662;28;20049;-72
2022/01/15 05:52:36;;;;;;;7.95;4.05;;;6.10;99.90;;;;;;5039081;28;20342;-71
2022/01/15 05:55:02;;;;;;;7.65;4.30;;;6.10;99.90;;;;;;5056467;28;20055;-70
2022/01/15 05:57:27;;;;;;;8.13;4.10;;;6.10;99.90;;;;;;5038883;28;20056;-70
2022/01/15 05:59:53;;;;;;;8.80;4.38;;;6.10;99.90;;;;;;5038751;28;20052;-71
2022/01/15 06:02:20;;;;;;;9.43;4.50;;;6.10;99.90;;;;;;5022207;28;20068;-71
2022/01/15 06:04:46;;;;;;;6.78;3.70;;;6.10;99.90;;;;;;5054607;28;20085;-70
2022/01/15 06:07:11;;;;;;;8.27;4.22;;;6.10;99.90;;;;;;5036629;28;20083;-70
2022/01/15 06:09:37;;;;;;;8.18;4.70;;;6.10;99.90;;;;;;5034357;28;20049;-71
2022/01/15 06:12:03;;;;;;;8.10;4.53;;;6.10;99.90;;;;;;5035616;28;20057;-72
2022/01/15 06:14:30;;;;;;;8.88;4.82;;;6.10;99.90;;;;;;5018817;28;20122;-70
2022/01/15 06:16:56;;;;;;;9.43;4.50;;;6.10;99.90;;;;;;5019015;28;20045;-69
2022/01/15 06:19:22;;;;;;;7.82;4.45;;;6.10;99.90;;;;;;5035823;28;20163;-71
2022/01/15 06:21:48;;;;;;;8.38;4.57;;;6.10;99.90;;;;;;5018312;28;20140;-72
2022/01/15 06:24:13;;;;;;;9.43;4.32;;;6.00;99.90;;;;;;5018671;28;20054;-72
2022/01/15 06:26:39;;;;;;;7.60;4.43;;;6.00;99.90;;;;;;5035841;28;20104;-70
2022/01/15 06:29:05;;;;;;;8.10;4.25;;;6.00;99.90;;;;;;5018422;28;20038;-72
2022/01/15 06:31:31;;;;;;;9.95;4.85;;;6.00;99.90;;;;;;5035981;28;20361;-70
2022/01/15 06:33:58;;;;;;;7.15;3.80;;;6.00;99.90;;;;;;5035635;28;20053;-70
2022/01/15 06:36:23;;;;;;;9.88;4.25;;;6.00;99.90;;;;;;5015682;28;20045;-70
2022/01/15 06:38:49;;;;;;;8.55;4.03;;;6.00;99.90;;;;;;5055198;28;20503;-70
2022/01/15 06:41:15;;;;;;;8.10;4.25;;;6.00;99.90;;;;;;5045624;28;20106;-72
2022/01/15 06:43:41;;;;;;;6.65;3.70;;;6.00;99.90;;;;;;5046660;28;20136;-71
2022/01/15 06:46:06;;;;;;;7.88;3.80;;;6.00;99.90;;;;;;5047115;28;20400;-72
2022/01/15 06:48:32;;;;;;;8.55;3.60;;;6.00;99.90;;;;;;5073195;28;20123;-72
2022/01/15 06:50:57;;;;;;;6.82;3.78;;;6.00;99.90;;;;;;5075585;28;20057;-72
2022/01/15 06:53:23;;;;;;;6.68;3.78;;;6.00;99.90;;;;;;5075234;28;20170;-72
2022/01/15 06:55:51;;;;;;;7.93;4.20;;;6.00;99.90;;;;;;5075088;28;20051;-70
2022/01/15 06:58:17;;;;;;;7.35;3.58;;;6.00;99.90;;;;;;5054776;28;20373;-73
2022/01/15 07:00:43;;;;;;;7.40;4.10;;;6.00;99.90;;;;;;5045314;28;20044;-70
2022/01/15 07:03:08;;;;;;;7.55;3.85;;;6.00;99.90;;;;;;5057813;28;20083;-71
2022/01/15 07:05:34;;;;;;;10.15;4.40;;;6.00;99.90;;;;;;5048003;28;20361;-71
2022/01/15 07:07:59;;;;;;;8.35;3.78;;;6.00;99.90;;;;;;5037513;28;20045;-71
2022/01/15 07:10:25;;;;;;;8.38;3.85;;;6.00;99.90;;;;;;5055130;28;20040;-70
2022/01/15 07:12:52;;;;;;;8.68;4.07;;;6.00;99.90;;;;;;5054844;28;20052;-72
2022/01/15 07:15:17;;;;;;;9.82;3.97;;;6.00;99.90;;;;;;5054787;28;20049;-71
2022/01/15 07:17:44;;;;;;;10.40;4.72;;;6.00;99.90;;;;;;5054860;28;20480;-71
2022/01/15 07:20:11;;;;;;;12.75;4.40;;;6.00;99.90;;;;;;5037577;28;20045;-71
2022/01/15 07:22:39;;;;;;;8.93;4.72;;;6.00;99.90;;;;;;5055040;28;20041;-72
2022/01/15 07:25:05;;;;;;;10.35;5.10;;;6.00;99.90;;;;;;5055094;28;20047;-71
2022/01/15 07:27:31;;;;;;;7.97;4.43;;;6.00;99.90;;;;;;5054704;28;20121;-72
2022/01/15 07:29:56;;;;;;;10.77;5.07;;;6.00;99.90;;;;;;5021210;28;20438;-72
2022/01/15 07:32:22;;;;;;;10.35;5.05;;;5.90;99.90;;;;;;5037433;28;20366;-71
2022/01/15 07:34:48;;;;;;;11.35;5.15;;;5.90;99.90;;;;;;5035504;28;20040;-72
2022/01/15 07:37:14;;;;;;;13.27;5.30;;;6.00;99.90;;;;;;5028042;28;20095;-72
2022/01/15 07:39:41;;;;;;;10.15;4.88;;;6.00;99.90;;;;;;5026198;28;20098;-70
2022/01/15 07:42:08;;;;;;;11.98;5.05;;;6.00;99.90;;;;;;5057033;28;20040;-71
2022/01/15 07:44:34;;;;;;;13.88;5.65;;;6.00;99.90;;;;;;5063023;28;20454;-71
2022/01/15 07:46:59;;;;;;;11.15;5.18;;;5.90;99.90;;;;;;5036859;28;20041;-71
2022/01/15 07:49:25;;;;;;;8.35;4.72;;;5.90;99.90;;;;;;5020416;28;20124;-70
2022/01/15 07:51:50;;;;;;;10.75;4.80;;;5.90;99.90;;;;;;5054556;28;20044;-71
2022/01/15 07:54:16;;;;;;;10.77;5.28;;;5.90;99.90;;;;;;5057430;28;20032;-71
2022/01/15 07:56:42;;;;;;;8.35;4.65;;;5.90;99.90;;;;;;5041191;28;20049;-71
2022/01/15 07:59:07;;;;;;;10.82;5.10;;;5.90;99.90;;;;;;5046047;28;20210;-72
2022/01/15 08:01:33;;;;;;;9.18;4.55;;;5.90;99.90;;;;;;5054191;28;20052;-71
2022/01/15 08:03:59;;;;;;;8.35;4.75;;;6.00;99.90;;;;;;5043354;28;20041;-71
2022/01/15 08:06:24;;;;;;;9.27;5.05;;;5.90;99.90;;;;;;5057651;28;20045;-70
2022/01/15 08:08:50;;;;;;;10.57;4.95;;;6.00;99.90;;;;;;5057516;28;20368;-70
2022/01/15 08:11:15;;;;;;;8.38;4.70;;;5.90;99.90;;;;;;5057371;28;20056;-72
2022/01/15 08:13:41;;;;;;;9.07;5.00;;;6.00;99.90;;;;;;5035736;28;20531;-71
2022/01/15 08:16:07;;;;;;;8.32;4.43;;;5.90;99.90;;;;;;5020356;28;20538;-71
2022/01/15 08:18:33;;;;;;;8.48;3.78;;;5.90;99.90;;;;;;5037999;28;20060;-69
2022/01/15 08:20:58;;;;;;;6.85;3.78;;;5.90;99.90;;;;;;5038402;28;20079;-70
2022/01/15 08:23:24;;;;;;;7.00;3.55;;;5.90;99.90;;;;;;5038137;28;20042;-69
2022/01/15 08:25:50;;;;;;;5.35;3.33;;;5.90;99.90;;;;;;5020329;28;20111;-72
2022/01/15 08:28:17;;;;;;;5.38;3.15;;;5.90;99.90;;;;;;5020314;28;20465;-70
2022/01/15 08:30:43;;;;;;;5.80;2.90;;;5.90;99.90;;;;;;5020248;28;20053;-71
2022/01/15 08:33:09;;;;;;;5.68;2.42;;;5.90;99.90;;;;;;5037707;28;20046;-71
2022/01/15 08:35:35;;;;;;;5.38;2.78;;;5.90;99.90;;;;;;5037866;28;20052;-70
2022/01/15 08:38:03;;;;;;;4.93;2.60;;;5.90;99.90;;;;;;5037993;28;20050;-69
2022/01/15 08:40:30;;;;;;;5.10;2.63;;;5.90;99.90;;;;;;5020248;28;20056;-69
2022/01/15 08:42:55;;;;;;;8.30;3.10;;;5.90;99.90;;;;;;5031436;28;20120;-71
2022/01/15 08:45:21;;;;;;;6.47;2.55;;;5.90;99.90;;;;;;5041296;28;20123;-70
2022/01/15 08:47:46;;;;;;;8.05;3.05;;;5.90;99.90;;;;;;5049923;28;20040;-70
2022/01/15 08:50:14;;;;;;;8.00;3.60;;;6.00;99.90;;;;;;5004016;28;20044;-70
2022/01/15 08:52:40;;;;;;;7.22;3.58;;;6.00;99.90;;;;;;5020035;28;20050;-70
2022/01/15 08:55:06;;;;;;;5.85;3.28;;;5.90;99.90;;;;;;5020006;28;20042;-70
2022/01/15 08:57:32;;;;;;;7.07;3.60;;;6.00;99.90;;;;;;5037076;28;20041;-70
2022/01/15 08:59:59;;;;;;;7.28;3.80;;;6.00;99.90;;;;;;5037156;28;20533;-69
2022/01/15 09:02:25;;;;;;;7.97;3.83;;;6.00;99.90;;;;;;5037222;28;20115;-71
2022/01/15 09:04:50;;;;;;;11.25;4.80;;;6.00;99.90;;;;;;5019554;28;20458;-71
2022/01/15 09:07:16;;;;;;;10.25;4.95;;;6.00;99.90;;;;;;5020096;28;20042;-69
2022/01/15 09:09:43;;;;;;;13.30;6.32;;;6.00;99.90;;;;;;5019594;28;20042;-71
2022/01/15 09:12:09;;;;;;;14.15;6.65;;;6.30;99.90;;;;;;5000013;28;20108;-72
2022/01/15 09:14:35;;;;;;;16.40;7.47;;;6.00;99.90;;;;;;5017976;28;20155;-70
2022/01/15 09:17:01;;;;;;;12.20;7.25;;;5.90;99.90;;;;;;5019130;28;20137;-69
2022/01/15 09:19:26;;;;;;;14.02;7.90;;;6.10;99.90;;;;;;5019508;28;20057;-70
2022/01/15 09:21:52;;;;;;;19.20;7.93;;;6.00;99.90;;;;;;5037054;28;20046;-71
2022/01/15 09:24:17;;;;;;;17.20;8.38;;;6.00;99.90;;;;;;5019278;28;20041;-70
2022/01/15 09:32:05;;;;;;;18.58;9.07;;;6.00;99.90;;;;;;5019410;28;20464;-71
2022/01/15 09:34:34;;;;;;;17.63;8.15;;;6.10;99.90;;;;;;5036227;28;20427;-70
2022/01/15 09:37:00;;;;;;;15.85;8.68;;;6.40;99.90;;;;;;5036646;28;20057;-71
2022/01/15 09:39:26;;;;;;;15.38;8.85;;;6.10;99.90;;;;;;5019785;28;20045;-71
2022/01/15 09:41:54;;;;;;;16.30;9.73;;;6.10;99.90;;;;;;5019232;28;20346;-70
2022/01/15 09:44:22;;;;;;;18.75;9.52;;;6.20;99.90;;;;;;5036929;28;20124;-71
2022/01/15 09:46:49;;;;;;;17.63;10.48;;;6.20;99.90;;;;;;5036307;28;20089;-70
2022/01/15 09:49:17;;;;;;;19.40;10.23;;;6.20;99.90;;;;;;5040042;28;20048;-71
2022/01/15 09:51:43;;;;;;;20.55;11.45;;;6.20;99.90;;;;;;5054694;28;20044;-70
2022/01/15 09:54:11;;;;;;;20.80;10.82;;;6.20;99.90;;;;;;5054157;28;20053;-71
2022/01/15 09:56:36;;;;;;;19.88;11.20;;;6.20;99.90;;;;;;5053495;28;20096;-72
2022/01/15 09:59:03;;;;;;;20.02;10.77;;;6.20;99.90;;;;;;5055239;28;20065;-71
2022/01/15 10:01:30;;;;;;;18.70;11.32;;;6.20;99.90;;;;;;5056846;28;20443;-68
2022/01/15 10:03:57;;;;;;;22.08;11.48;;;6.20;99.90;;;;;;5040455;28;20126;-70
2022/01/15 10:06:23;;;;;;;16.88;10.73;;;6.20;99.90;;;;;;5045880;28;20060;-69
2022/01/15 10:09:05;;;;;;;17.13;10.52;;;6.20;99.90;;;;;;5029066;28;20049;-70
2022/01/15 10:11:44;;;;;;;20.63;11.77;;;6.20;99.90;;;;;;5054354;28;20083;-69
2022/01/15 10:14:43;;;;;;;20.95;11.00;;;6.20;99.90;;;;;;5035498;28;20080;-72
2022/01/15 10:17:28;;;;;;;17.42;9.90;;;6.20;99.90;;;;;;4989086;28;20147;-71
2022/01/15 10:19:56;;;;;;;18.42;10.63;;;6.20;99.90;;;;;;5022073;28;20049;-71
2022/01/15 10:22:24;;;;;;;19.20;10.32;;;6.30;99.90;;;;;;5014454;28;20057;-70
2022/01/15 10:24:51;;;;;;;20.55;11.25;;;6.20;99.90;;;;;;5062760;28;20037;-70
2022/01/15 10:27:18;;;;;;;20.75;10.63;;;6.30;99.90;;;;;;5057575;28;20059;-71
2022/01/15 10:30:17;;;;;;;20.23;11.30;;;6.30;99.90;;;;;;5074978;28;20051;-71
2022/01/15 10:32:58;;;;;;;15.82;8.98;;;6.30;99.90;;;;;;5057115;28;20056;-68
2022/01/15 10:35:45;;;;;;;13.25;7.75;;;6.30;99.90;;;;;;5057038;28;20059;-71
2022/01/15 10:38:17;;;;;;;16.38;8.45;;;6.60;99.90;;;;;;5057519;28;20048;-70
2022/01/15 10:40:50;;;;;;;18.60;10.88;;;6.20;99.90;;;;;;5074762;28;20361;-69
2022/01/15 10:43:18;;;;;;;18.65;10.43;;;6.30;99.90;;;;;;5074433;28;20056;-68
2022/01/15 10:45:55;;;;;;;16.98;9.60;;;6.20;99.90;;;;;;5057564;28;20056;-71
2022/01/15 10:48:32;;;;;;;16.30;9.70;;;6.20;99.90;;;;;;5054725;28;20480;-70
2022/01/15 10:51:07;;;;;;;18.75;10.38;;;6.30;99.90;;;;;;5054577;28;20165;-70
2022/01/15 10:53:44;;;;;;;15.68;9.25;;;6.20;99.90;;;;;;5036793;28;20132;-71
2022/01/15 10:56:13;;;;;;;16.10;9.60;;;6.20;99.90;;;;;;5054693;28;20103;-69
2022/01/15 10:58:39;;;;;;;17.73;10.07;;;6.20;99.90;;;;;;5037256;28;20089;-69
2022/01/15 11:01:05;;;;;;;17.48;9.68;;;6.20;99.90;;;;;;5037222;28;20052;-67
2022/01/15 11:03:39;;;;;;;19.90;10.93;;;6.20;99.90;;;;;;5037159;28;20049;-69
2022/01/15 11:06:05;;;;;;;20.83;10.68;;;6.20;99.90;;;;;;5054134;28;20045;-68
2022/01/15 11:08:35;;;;;;;20.92;11.35;;;6.20;99.90;;;;;;5037072;28;20120;-67
2022/01/15 11:11:04;;;;;;;19.23;10.55;;;6.20;99.90;;;;;;5036813;28;20084;-70
2022/01/15 11:13:29;;;;;;;19.77;11.32;;;6.20;99.90;;;;;;5054221;28;20083;-71
2022/01/15 11:15:59;;;;;;;20.08;11.80;;;6.20;99.90;;;;;;5033820;28;20057;-71
2022/01/15 11:18:33;;;;;;;21.33;11.30;;;6.20;99.90;;;;;;5017207;28;20049;-70
2022/01/15 11:21:02;;;;;;;19.95;11.23;;;6.20;99.90;;;;;;5016439;28;20112;-68
2022/01/15 11:23:29;;;;;;;22.08;12.57;;;6.20;99.90;;;;;;5045299;28;20106;-69
2022/01/15 11:25:59;;;;;;;21.10;11.50;;;6.20;99.90;;;;;;5074430;28;20044;-67
2022/01/15 11:28:26;;;;;;;20.02;12.48;;;6.20;99.90;;;;;;5075535;28;20110;-67
2022/01/15 11:30:58;;;;;;;19.85;12.75;;;6.20;99.90;;;;;;5036872;28;20056;-68
2022/01/15 11:33:30;;;;;;;18.58;12.18;;;6.20;99.90;;;;;;5016489;28;20033;-68
2022/01/15 11:35:56;;;;;;;20.23;12.52;;;6.20;99.90;;;;;;5033755;28;20565;-67
2022/01/15 11:38:46;;;;;;;20.55;12.20;;;6.20;99.90;;;;;;5034154;28;20081;-67
2022/01/15 11:41:27;;;;;;;20.70;12.02;;;6.20;99.90;;;;;;5003693;28;20060;-70
2022/01/15 11:44:03;;;;;;;20.55;12.30;;;6.20;99.90;;;;;;5037885;28;20354;-68
2022/01/15 11:46:33;;;;;;;20.05;13.10;;;6.20;99.90;;;;;;5038002;28;20088;-71
2022/01/15 11:49:40;;;;;;;20.27;13.00;;;6.20;99.90;;;;;;5021488;28;20089;-69
2022/01/15 11:52:06;;;;;;;19.50;12.85;;;6.10;99.90;;;;;;5029992;28;20482;-70
2022/01/15 11:54:33;;;;;;;22.20;12.45;;;6.10;99.90;;;;;;5058212;28;20083;-70
2022/01/15 11:57:03;;;;;;;18.98;12.80;;;6.10;99.90;;;;;;5062233;28;20049;-68
2022/01/15 11:59:29;;;;;;;20.52;12.90;;;6.10;99.90;;;;;;5058264;28;20044;-69
2022/01/15 12:02:01;;;;;;;53.08;14.38;;;6.10;99.90;;;;;;5040943;28;20487;-68
2022/01/15 12:04:28;;;;;;;20.77;14.43;;;6.10;99.90;;;;;;5041045;28;20049;-72
2022/01/15 12:07:05;;;;;;;19.70;13.00;;;6.10;99.90;;;;;;5040609;28;20049;-69
2022/01/15 12:09:38;;;;;;;27.13;15.48;;;6.10;99.90;;;;;;5040638;28;20055;-71
2022/01/15 12:12:20;;;;;;;22.02;13.80;;;6.10;99.90;;;;;;5040289;28;20469;-70
2022/01/15 12:14:57;;;;;;;20.55;14.23;;;6.10;99.90;;;;;;5058296;28;20079;-70
2022/01/15 12:17:30;;;;;;;25.65;16.50;;;6.10;99.90;;;;;;5057742;28;20419;-72
2022/01/15 12:19:59;;;;;;;24.63;16.67;;;6.10;99.90;;;;;;5057969;28;20048;-69
2022/01/15 12:22:45;;;;;;;26.83;17.75;;;6.10;99.90;;;;;;5040997;28;20096;-70
2022/01/15 12:25:12;;;;;;;30.42;18.08;;;6.10;99.90;;;;;;5040431;28;20122;-69
2022/01/15 12:27:39;;;;;;;26.88;15.63;;;6.10;99.90;;;;;;5057813;28;20048;-73
2022/01/15 12:30:18;;;;;;;27.02;16.60;;;6.10;99.90;;;;;;5048733;28;20441;-71
2022/01/15 12:32:49;;;;;;;25.42;16.50;;;6.10;99.90;;;;;;5040348;28;20049;-70
2022/01/15 12:35:18;;;;;;;25.00;16.52;;;6.10;99.90;;;;;;5057696;28;20441;-68
2022/01/15 12:38:00;;;;;;;25.92;16.33;;;6.10;99.90;;;;;;5040367;28;20449;-69
2022/01/15 12:40:38;;;;;;;23.73;15.40;;;6.10;99.90;;;;;;5057512;28;20090;-70
2022/01/15 12:43:17;;;;;;;24.08;15.95;;;6.10;99.90;;;;;;5040034;28;20049;-70
2022/01/15 12:45:45;;;;;;;25.70;17.70;;;6.00;99.90;;;;;;5040077;28;20037;-72
2022/01/15 12:48:15;;;;;;;25.48;15.95;;;6.10;99.90;;;;;;5057595;28;20049;-70
2022/01/15 12:50:47;;;;;;;26.38;15.82;;;6.00;99.90;;;;;;5039523;28;20057;-71
2022/01/15 12:53:14;;;;;;;23.05;15.98;;;6.10;99.90;;;;;;5039777;28;20053;-71
2022/01/15 12:55:40;;;;;;;25.92;17.05;;;6.00;99.90;;;;;;5057294;28;20107;-71
2022/01/15 12:58:07;;;;;;;27.40;17.02;;;6.00;99.90;;;;;;5060420;28;20051;-71
2022/01/15 13:00:36;;;;;;;27.88;17.08;;;6.00;99.90;;;;;;5077490;28;20044;-73
2022/01/15 13:03:13;;;;;;;28.58;16.83;;;5.90;99.90;;;;;;5077454;28;20051;-71
2022/01/15 13:05:40;;;;;;;28.63;18.10;;;6.00;99.90;;;;;;5059905;28;20064;-70
2022/01/15 13:10:48;;;;;;;29.10;18.75;;;6.00;99.90;;;;;;5033436;28;20122;-69
2022/01/15 13:13:22;;;;;;;32.53;19.15;;;6.00;99.90;;;;;;5020028;28;20049;-70
2022/01/15 13:15:57;;;;;;;30.50;19.75;;;6.00;99.90;;;;;;5019289;28;20077;-70
2022/01/15 13:18:23;;;;;;;29.13;18.15;;;6.00;99.90;;;;;;5036060;28;20145;-68
2022/01/15 13:20:50;;;;;;;33.85;19.55;;;6.00;99.90;;;;;;5036878;28;20521;-69